Time;durP1;ratioP1;P1;durP2;ratioP2;P2;SDS_P1;SDS_P2;PMS_P1;PMS_P2;Temp;Humidity;BMP_temperature;BMP_pressure;BME280_temperature;BME280_humidity;BME280_pressure;Samples;Min_cycle;Max_cycle;Signal;HPM_P1;HPM_P2
2023/02/11 00:01:37;;;;;;;126.10;54.90;;;;;;;-7.51;60.01;103150.05;107615;1254;111294;-61
2023/02/11 00:04:06;;;;;;;114.30;54.00;;;;;;;-7.53;60.23;103143.39;107611;1254;110364;-61
2023/02/11 00:06:35;;;;;;;110.00;52.60;;;;;;;-7.56;60.25;103143.85;107608;1253;107676;-61
2023/02/11 00:09:05;;;;;;;108.00;52.80;;;;;;;-7.55;60.08;103138.98;107615;1253;97868;-61
2023/02/11 00:11:33;;;;;;;111.50;50.50;;;;;;;-7.57;60.24;103138.06;107648;1253;98395;-62
2023/02/11 00:14:06;;;;;;;105.90;52.70;;;;;;;-7.61;60.32;103139.54;107682;1255;110748;-62
2023/02/11 00:16:35;;;;;;;108.60;51.20;;;;;;;-7.63;60.19;103135.14;107658;1252;109855;-62
2023/02/11 00:19:05;;;;;;;120.00;52.50;;;;;;;-7.63;60.25;103126.60;107672;1255;108268;-62
2023/02/11 00:21:34;;;;;;;111.00;50.90;;;;;;;-7.65;60.53;103122.88;107615;1251;97859;-62
2023/02/11 00:24:02;;;;;;;115.10;53.20;;;;;;;-7.63;60.67;103123.45;107658;1253;97844;-61
2023/02/11 00:26:33;;;;;;;108.50;50.90;;;;;;;-7.61;60.69;103126.98;107678;1254;111684;-61
2023/02/11 00:29:02;;;;;;;102.10;51.00;;;;;;;-7.61;60.58;103130.65;107512;1251;108559;-61
2023/02/11 00:31:32;;;;;;;120.80;52.60;;;;;;;-7.65;60.46;103131.08;107658;1251;108724;-61
2023/02/11 00:34:01;;;;;;;101.90;52.70;;;;;;;-7.66;60.77;103130.35;107593;1253;97749;-62
2023/02/11 00:36:29;;;;;;;118.50;53.50;;;;;;;-7.63;60.81;103127.11;107607;1254;97716;-62
2023/02/11 00:38:58;;;;;;;112.20;50.60;;;;;;;-7.60;60.96;103124.93;107681;1254;112125;-61
2023/02/11 00:41:28;;;;;;;96.50;51.10;;;;;;;-7.61;61.07;103119.14;107661;1254;110081;-62
2023/02/11 00:44:00;;;;;;;116.40;52.60;;;;;;;-7.64;60.73;103118.36;107609;1256;108938;-61
2023/02/11 00:46:29;;;;;;;100.80;49.10;;;;;;;-7.66;60.97;103120.92;107659;1251;97979;-61
2023/02/11 00:48:57;;;;;;;105.20;50.70;;;;;;;-7.68;61.15;103122.64;107637;1252;97758;-62
2023/02/11 00:51:27;;;;;;;112.30;51.80;;;;;;;-7.68;60.99;103123.16;107638;1254;111308;-62
2023/02/11 00:53:56;;;;;;;110.00;53.80;;;;;;;-7.66;60.94;103124.06;107645;1251;107142;-61
2023/02/11 00:56:25;;;;;;;114.30;54.10;;;;;;;-7.67;61.00;103120.91;107614;1255;107931;-61
2023/02/11 00:58:53;;;;;;;108.70;53.60;;;;;;;-7.72;61.08;103122.73;107666;1251;97788;-61
2023/02/11 01:01:22;;;;;;;109.90;53.40;;;;;;;-7.74;61.18;103118.98;107634;1251;98385;-62
2023/02/11 01:03:51;;;;;;;109.70;53.00;;;;;;;-7.75;60.95;103111.13;107643;1254;111940;-61
2023/02/11 01:06:19;;;;;;;114.70;52.20;;;;;;;-7.75;61.46;103109.02;107614;1251;110045;-62
2023/02/11 01:08:48;;;;;;;104.10;52.00;;;;;;;-7.78;61.34;103107.92;107692;1255;107256;-61
2023/02/11 01:11:18;;;;;;;107.50;53.10;;;;;;;-7.79;61.21;103109.30;107650;1255;98003;-62
2023/02/11 01:13:48;;;;;;;117.20;54.30;;;;;;;-7.85;61.24;103105.49;107524;1251;97958;-62
2023/02/11 01:16:18;;;;;;;108.00;54.10;;;;;;;-7.88;61.22;103106.80;107627;1253;111615;-60
2023/02/11 01:18:47;;;;;;;115.60;52.10;;;;;;;-7.89;61.33;103098.40;107617;1253;109275;-62
2023/02/11 01:21:18;;;;;;;103.40;53.00;;;;;;;-7.88;61.14;103093.20;107623;1254;108096;-62
2023/02/11 01:23:46;;;;;;;110.50;53.60;;;;;;;-7.91;60.98;103087.56;107644;1253;97755;-62
2023/02/11 01:26:15;;;;;;;113.40;52.90;;;;;;;-7.96;60.81;103088.32;107635;1253;97877;-62
2023/02/11 01:28:44;;;;;;;119.00;57.30;;;;;;;-7.96;60.73;103085.33;107666;1254;112230;-63
2023/02/11 01:31:13;;;;;;;125.50;57.90;;;;;;;-7.96;60.85;103089.86;107679;1254;110077;-62
2023/02/11 01:33:41;;;;;;;119.80;56.60;;;;;;;-7.98;60.90;103084.59;107644;1253;107691;-62
2023/02/11 01:36:11;;;;;;;125.10;55.70;;;;;;;-8.01;60.96;103081.04;107620;1254;97978;-62
2023/02/11 01:38:39;;;;;;;118.60;52.40;;;;;;;-8.04;60.91;103079.58;107642;1251;97685;-61
2023/02/11 01:41:11;;;;;;;117.10;52.60;;;;;;;-8.09;61.54;103079.27;107619;1254;111773;-62
2023/02/11 01:43:47;;;;;;;106.50;52.20;;;;;;;-8.16;61.28;103075.41;107627;1254;110368;-63
2023/02/11 01:46:37;;;;;;;114.70;56.60;;;;;;;-8.19;61.60;103079.17;107618;1254;109056;-62
2023/02/11 01:49:11;;;;;;;116.90;56.90;;;;;;;-8.21;61.73;103073.21;107658;1254;97857;-61
2023/02/11 01:51:55;;;;;;;113.90;55.50;;;;;;;-8.21;61.61;103072.00;107559;1253;97740;-62
2023/02/11 01:57:21;;;;;;;121.20;56.90;;;;;;;-8.20;61.88;103070.10;107588;1254;109213;-62
2023/02/11 02:00:23;;;;;;;119.30;56.80;;;;;;;-8.19;61.94;103074.84;107606;1254;108717;-62
2023/02/11 02:03:01;;;;;;;130.70;57.20;;;;;;;-8.17;62.29;103067.91;107585;1254;97818;-62
2023/02/11 02:05:45;;;;;;;119.60;55.30;;;;;;;-8.20;62.07;103064.70;107617;1254;98362;-62
2023/02/11 02:08:36;;;;;;;;;;;;;;;-8.23;62.09;103068.11;107658;1256;111404;-61
2023/02/11 02:11:05;;;;;;;115.90;54.10;;;;;;;-8.22;62.04;103072.48;107495;1253;109209;-61
2023/02/11 02:13:34;;;;;;;115.00;56.20;;;;;;;-8.21;61.99;103070.44;107623;1253;107701;-61
2023/02/11 02:16:11;;;;;;;125.60;57.60;;;;;;;-8.19;62.23;103066.27;107638;1251;97846;-61
2023/02/11 02:18:47;;;;;;;126.00;59.50;;;;;;;-8.19;62.11;103075.00;107632;1255;97733;-60
2023/02/11 02:21:31;;;;;;;127.00;61.60;;;;;;;-8.19;62.27;103073.61;107619;1254;111370;-62
2023/02/11 02:24:30;;;;;;;118.10;58.30;;;;;;;-8.20;62.01;103072.02;107634;1253;109443;-61
2023/02/11 02:27:14;;;;;;;126.10;57.60;;;;;;;-8.24;62.13;103068.59;107652;1255;108148;-61
2023/02/11 02:29:54;;;;;;;109.10;54.40;;;;;;;-8.25;62.53;103071.36;107592;1252;97908;-61
2023/02/11 02:32:50;;;;;;;111.60;55.00;;;;;;;-8.23;62.24;103066.87;107615;1252;97730;-61
2023/02/11 02:35:39;;;;;;;120.30;58.60;;;;;;;-8.21;62.06;103064.52;107601;1251;112394;-63
2023/02/11 02:38:29;;;;;;;112.10;55.60;;;;;;;-8.20;62.38;103066.44;107645;1253;109743;-62
2023/02/11 02:41:06;;;;;;;114.90;56.60;;;;;;;-8.18;62.47;103061.45;107627;1254;108555;-61
2023/02/11 02:43:39;;;;;;;119.90;57.20;;;;;;;-8.15;62.42;103061.00;107674;1253;97834;-61
2023/02/11 02:46:18;;;;;;;123.00;58.70;;;;;;;-8.09;62.54;103067.59;107688;1253;98361;-61
2023/02/11 02:48:48;;;;;;;114.20;61.30;;;;;;;-8.01;62.70;103059.44;107674;1254;112247;-62
2023/02/11 02:51:38;;;;;;;127.20;59.60;;;;;;;-7.96;62.75;103062.35;107645;1253;110091;-61
2023/02/11 02:54:35;;;;;;;109.50;56.20;;;;;;;-7.88;62.58;103064.13;107634;1252;106095;-62
2023/02/11 02:57:37;;;;;;;125.50;59.10;;;;;;;-7.78;62.88;103066.98;107652;1253;97815;-62
2023/02/11 03:00:16;;;;;;;117.80;58.10;;;;;;;-7.65;63.20;103069.55;107652;1251;98380;-61
2023/02/11 03:02:59;;;;;;;108.30;55.10;;;;;;;-7.58;62.98;103064.69;107629;1251;112378;-66
2023/02/11 03:05:43;;;;;;;111.30;57.40;;;;;;;-7.48;63.02;103065.77;107615;1254;109649;-61
2023/02/11 03:08:36;;;;;;;119.50;57.40;;;;;;;-7.36;63.19;103069.19;107612;1251;108121;-62
2023/02/11 03:11:08;;;;;;;119.00;56.30;;;;;;;-7.25;63.38;103068.04;107504;1254;97872;-62
2023/02/11 03:13:38;;;;;;;121.70;60.80;;;;;;;-7.16;63.61;103062.15;107646;1252;97803;-61
2023/02/11 03:16:12;;;;;;;128.90;60.10;;;;;;;-7.08;63.68;103059.17;107685;1254;112155;-62
2023/02/11 03:18:47;;;;;;;113.50;59.10;;;;;;;-7.00;63.82;103054.80;107684;1254;110037;-62
2023/02/11 03:21:17;;;;;;;115.00;58.40;;;;;;;-6.91;63.56;103054.13;107659;1254;107338;-62
2023/02/11 03:23:52;;;;;;;126.20;59.60;;;;;;;-6.83;63.43;103053.23;107590;1254;97851;-63
2023/02/11 03:26:36;;;;;;;134.50;60.30;;;;;;;-6.76;63.53;103046.23;107620;1254;97736;-65
2023/02/11 03:29:27;;;;;;;127.40;59.00;;;;;;;-6.68;63.90;103042.71;107641;1254;111871;-61
2023/02/11 03:32:14;;;;;;;127.10;59.60;;;;;;;-6.59;63.50;103036.10;107604;1253;109575;-62
2023/02/11 03:35:23;;;;;;;123.30;60.60;;;;;;;-6.48;63.71;103035.27;107632;1254;108482;-61
2023/02/11 03:37:54;;;;;;;126.30;61.00;;;;;;;-6.35;63.60;103026.24;107553;1254;97916;-61
2023/02/11 03:40:30;;;;;;;128.40;61.20;;;;;;;-6.26;63.45;103026.05;107617;1252;97810;-62
2023/02/11 03:43:06;;;;;;;119.30;57.10;;;;;;;-6.19;63.29;103026.34;107644;1254;111441;-61
2023/02/11 03:45:36;;;;;;;121.50;55.80;;;;;;;-6.12;63.32;103032.77;107619;1254;109607;-60
2023/02/11 03:48:22;;;;;;;127.50;61.90;;;;;;;-6.04;63.29;103030.09;107621;1254;108840;-60
2023/02/11 03:50:53;;;;;;;120.20;57.60;;;;;;;-5.96;63.20;103029.85;107619;1253;97892;-62
2023/02/11 03:53:22;;;;;;;101.90;50.90;;;;;;;-5.89;62.93;103029.95;107615;1254;98357;-61
2023/02/11 03:55:54;;;;;;;104.40;53.40;;;;;;;-5.85;62.42;103040.52;107646;1251;112664;-62
2023/02/11 03:58:22;;;;;;;114.30;56.60;;;;;;;-5.80;62.79;103033.44;107623;1254;108246;-62
2023/02/11 04:00:51;;;;;;;117.70;56.80;;;;;;;-5.73;62.44;103031.79;107614;1253;108698;-61
2023/02/11 04:03:19;;;;;;;119.00;57.80;;;;;;;-5.67;62.23;103034.33;107666;1253;97919;-61
2023/02/11 04:05:48;;;;;;;122.30;59.10;;;;;;;-5.63;62.48;103031.94;107704;1253;98366;-62
2023/02/11 04:08:17;;;;;;;116.50;56.50;;;;;;;-5.60;62.50;103032.17;107660;1253;111209;-62
2023/02/11 04:10:45;;;;;;;113.60;57.20;;;;;;;-5.54;62.30;103028.75;107594;1254;109906;-62
2023/02/11 04:13:14;;;;;;;112.80;56.40;;;;;;;-5.50;62.12;103025.14;107626;1251;108194;-62
2023/02/11 04:15:42;;;;;;;120.50;56.90;;;;;;;-5.44;62.44;103021.03;107630;1253;97817;-61
2023/02/11 04:18:11;;;;;;;127.50;57.30;;;;;;;-5.38;62.22;103017.27;107628;1254;97861;-62
2023/02/11 04:20:39;;;;;;;117.00;57.60;;;;;;;-5.31;61.88;103014.21;107623;1251;111292;-62
2023/02/11 04:23:07;;;;;;;108.90;57.70;;;;;;;-5.28;62.07;103014.44;107648;1252;110826;-61
2023/02/11 04:25:36;;;;;;;116.90;57.60;;;;;;;-5.22;62.46;103011.70;107686;1254;107705;-60
2023/02/11 04:28:04;;;;;;;119.40;55.90;;;;;;;-5.15;62.16;103008.31;107611;1251;97857;-62
2023/02/11 04:30:32;;;;;;;112.00;56.50;;;;;;;-5.10;61.99;103010.12;107630;1254;97849;-61
2023/02/11 04:33:00;;;;;;;109.20;52.50;;;;;;;-5.04;61.99;103013.52;107620;1254;112460;-62
2023/02/11 04:35:29;;;;;;;85.60;44.80;;;;;;;-5.00;61.90;103007.63;107649;1252;108232;-61
2023/02/11 04:37:57;;;;;;;83.90;39.10;;;;;;;-4.98;61.30;103002.92;107596;1254;109265;-62
2023/02/11 04:40:25;;;;;;;82.50;39.10;;;;;;;-4.99;61.14;102995.73;107625;1253;97951;-63
2023/02/11 04:42:54;;;;;;;84.80;39.00;;;;;;;-5.01;61.14;102997.10;107673;1253;98353;-63
2023/02/11 04:45:23;;;;;;;85.30;36.70;;;;;;;-5.04;61.06;102998.30;107623;1254;111181;-60
2023/02/11 04:47:51;;;;;;;90.00;37.40;;;;;;;-5.08;60.64;102985.66;107667;1254;109530;-63
2023/02/11 04:50:20;;;;;;;89.60;37.30;;;;;;;-5.11;60.80;102984.56;107585;1253;107720;-61
2023/02/11 04:52:49;;;;;;;77.90;36.20;;;;;;;-5.12;60.64;102982.63;107587;1254;97989;-63
2023/02/11 04:55:18;;;;;;;85.90;40.80;;;;;;;-5.15;60.79;102980.31;107667;1253;98376;-63
2023/02/11 04:57:46;;;;;;;94.40;41.70;;;;;;;-5.16;60.80;102971.03;107647;1255;111384;-62
2023/02/11 05:00:15;;;;;;;91.80;42.50;;;;;;;-5.15;60.75;102975.05;107618;1254;109876;-62
2023/02/11 05:02:43;;;;;;;94.50;43.30;;;;;;;-5.18;60.90;102977.30;107659;1253;107831;-63
2023/02/11 05:05:12;;;;;;;88.90;42.00;;;;;;;-5.20;61.05;102976.05;107624;1253;97902;-61
2023/02/11 05:07:41;;;;;;;102.00;47.10;;;;;;;-5.21;61.36;102972.55;107621;1251;98402;-61
2023/02/11 05:10:09;;;;;;;98.90;45.60;;;;;;;-5.21;61.52;102969.40;107607;1254;111369;-62
2023/02/11 05:12:38;;;;;;;103.60;46.70;;;;;;;-5.21;61.70;102964.66;107603;1254;108257;-62
2023/02/11 05:15:07;;;;;;;97.40;42.90;;;;;;;-5.22;61.68;102960.64;107602;1255;107661;-62
2023/02/11 05:17:35;;;;;;;91.80;45.80;;;;;;;-5.22;61.58;102961.52;107624;1254;97826;-62
2023/02/11 05:20:04;;;;;;;100.90;45.30;;;;;;;-5.23;61.54;102955.02;107664;1253;97716;-61
2023/02/11 05:22:32;;;;;;;100.10;45.30;;;;;;;-5.23;61.69;102957.30;107635;1254;111041;-61
2023/02/11 05:25:00;;;;;;;105.80;48.40;;;;;;;-5.17;61.78;102954.04;107621;1254;110574;-61
2023/02/11 05:27:28;;;;;;;103.00;48.00;;;;;;;-5.11;61.98;102953.06;107635;1253;107558;-61
2023/02/11 05:29:57;;;;;;;110.50;51.30;;;;;;;-5.06;61.57;102949.29;107605;1254;97736;-63
2023/02/11 05:32:25;;;;;;;116.50;53.30;;;;;;;-5.03;61.74;102950.52;107656;1254;98021;-62
2023/02/11 05:34:53;;;;;;;111.60;51.90;;;;;;;-5.03;61.90;102953.16;107663;1253;110773;-63
2023/02/11 05:37:22;;;;;;;103.00;48.30;;;;;;;-5.05;61.90;102956.46;107689;1254;108288;-63
2023/02/11 05:39:51;;;;;;;101.30;45.80;;;;;;;-5.06;62.35;102952.94;107577;1253;106868;-63
2023/02/11 05:42:19;;;;;;;105.40;45.20;;;;;;;-5.07;62.24;102955.92;107609;1253;97835;-62
2023/02/11 05:44:48;;;;;;;109.20;47.30;;;;;;;-5.07;62.44;102952.23;107628;1254;97806;-61
2023/02/11 05:47:17;;;;;;;103.70;46.60;;;;;;;-5.08;62.45;102955.02;107682;1253;111446;-62
2023/02/11 05:49:46;;;;;;;123.30;54.00;;;;;;;-5.10;62.28;102958.34;107628;1254;109302;-61
2023/02/11 05:52:14;;;;;;;124.40;49.40;;;;;;;-5.09;62.38;102959.04;107672;1255;108355;-61
2023/02/11 05:54:43;;;;;;;105.10;47.70;;;;;;;-5.09;62.35;102958.86;107622;1254;97870;-62
2023/02/11 05:57:12;;;;;;;113.70;48.80;;;;;;;-5.07;62.15;102959.60;107645;1254;99563;-62
2023/02/11 05:59:40;;;;;;;99.50;44.40;;;;;;;-5.05;62.23;102959.27;107637;1254;110281;-62
2023/02/11 06:02:09;;;;;;;109.40;48.90;;;;;;;-4.99;61.78;102958.98;107614;1254;109929;-61
2023/02/11 06:04:38;;;;;;;121.20;53.20;;;;;;;-4.96;61.92;102955.69;107643;1253;108136;-61
2023/02/11 06:07:06;;;;;;;108.60;50.40;;;;;;;-4.92;62.21;102959.23;107668;1253;97850;-62
2023/02/11 06:09:36;;;;;;;111.40;52.20;;;;;;;-4.88;62.28;102965.77;107597;1254;97744;-62
2023/02/11 06:12:04;;;;;;;108.10;48.30;;;;;;;-4.84;62.12;102957.05;107627;1253;112118;-61
2023/02/11 06:14:33;;;;;;;107.90;51.30;;;;;;;-4.83;62.16;102963.17;107635;1255;110820;-61
2023/02/11 06:17:01;;;;;;;115.60;51.40;;;;;;;-4.81;62.08;102964.78;107631;1254;105995;-62
2023/02/11 06:19:30;;;;;;;124.70;51.10;;;;;;;-4.79;61.90;102964.11;107616;1255;97806;-62
2023/02/11 06:21:58;;;;;;;109.90;50.30;;;;;;;-4.74;61.79;102960.14;107615;1255;98015;-62
2023/02/11 06:24:26;;;;;;;109.50;51.30;;;;;;;-4.66;61.93;102958.98;107623;1254;111810;-61
2023/02/11 06:27:15;;;;;;;112.40;51.50;;;;;;;-4.59;61.73;102957.83;107600;1255;109699;-61
2023/02/11 06:29:45;;;;;;;121.80;55.30;;;;;;;-4.55;62.18;102953.66;107549;1254;108334;-61
2023/02/11 06:32:13;;;;;;;125.50;54.70;;;;;;;-4.48;61.70;102948.83;107631;1256;97933;-62
2023/02/11 06:35:01;;;;;;;110.40;55.20;;;;;;;-4.38;61.68;102946.46;107649;1251;97953;-62
2023/02/11 06:37:30;;;;;;;118.60;53.90;;;;;;;-4.30;61.88;102951.27;107620;1254;111450;-61
2023/02/11 06:39:58;;;;;;;99.40;48.10;;;;;;;-4.22;61.53;102950.45;107661;1254;109890;-61
2023/02/11 06:42:27;;;;;;;128.40;58.60;;;;;;;-4.20;60.70;102950.29;107718;1256;107427;-62
2023/02/11 06:44:55;;;;;;;124.00;56.50;;;;;;;-4.17;61.19;102957.16;107629;1254;97891;-62
2023/02/11 06:47:23;;;;;;;119.00;55.90;;;;;;;-4.08;61.14;102958.63;107609;1256;97986;-62
2023/02/11 06:49:52;;;;;;;130.00;60.80;;;;;;;-3.98;61.15;102954.33;107612;1254;110972;-62
2023/02/11 06:52:20;;;;;;;136.90;56.20;;;;;;;-3.89;60.93;102952.29;107531;1253;109895;-61
2023/02/11 06:54:49;;;;;;;125.20;60.20;;;;;;;-3.82;60.97;102949.18;107565;1254;107645;-62
2023/02/11 06:57:17;;;;;;;131.50;61.70;;;;;;;-3.74;60.92;102954.48;107597;1254;97733;-61
2023/02/11 06:59:46;;;;;;;121.40;59.90;;;;;;;-3.68;61.04;102951.19;107557;1253;97838;-61
2023/02/11 07:02:14;;;;;;;128.70;62.90;;;;;;;-3.65;60.83;102952.96;107567;1254;111383;-62
2023/02/11 07:04:44;;;;;;;123.20;59.90;;;;;;;-3.57;61.04;102948.80;107551;1252;109300;-62
2023/02/11 07:07:12;;;;;;;122.80;59.00;;;;;;;-3.46;61.25;102948.33;107544;1254;108305;-62
2023/02/11 07:09:40;;;;;;;130.10;61.90;;;;;;;-3.33;61.13;102943.13;107515;1254;97820;-62
2023/02/11 07:12:09;;;;;;;125.20;58.90;;;;;;;-3.19;61.29;102936.69;107581;1253;97898;-60
2023/02/11 07:14:39;;;;;;;139.50;65.60;;;;;;;-3.01;60.75;102934.48;107666;1254;112501;-62
2023/02/11 07:17:07;;;;;;;134.80;64.20;;;;;;;-2.86;60.79;102933.11;107656;1253;108701;-61
2023/02/11 07:19:35;;;;;;;128.10;59.50;;;;;;;-2.73;60.51;102930.85;107640;1254;107713;-61
2023/02/11 07:22:04;;;;;;;130.60;58.30;;;;;;;-2.60;60.22;102928.59;107602;1253;97922;-62
2023/02/11 07:24:32;;;;;;;115.00;53.90;;;;;;;-2.47;59.78;102929.13;107645;1255;97840;-62
2023/02/11 07:27:00;;;;;;;99.50;51.10;;;;;;;-2.34;59.33;102928.26;107661;1254;111665;-63
2023/02/11 07:29:29;;;;;;;102.90;48.50;;;;;;;-2.18;58.67;102927.02;107645;1256;109582;-62
2023/02/11 07:31:57;;;;;;;112.10;48.00;;;;;;;-2.04;58.39;102924.73;107575;1255;109458;-62
2023/02/11 07:34:26;;;;;;;98.40;47.80;;;;;;;-1.89;58.39;102922.42;107626;1252;97943;-60
2023/02/11 07:36:54;;;;;;;108.00;49.00;;;;;;;-1.66;58.54;102921.83;107621;1254;97683;-62
2023/02/11 07:39:26;;;;;;;100.00;43.10;;;;;;;-1.43;57.95;102915.79;107662;1253;111258;-62
2023/02/11 07:41:55;;;;;;;87.30;41.10;;;;;;;-1.29;57.50;102915.20;107601;1254;108904;-61
2023/02/11 07:44:24;;;;;;;78.10;35.40;;;;;;;-1.18;56.92;102911.80;107625;1253;106891;-61
2023/02/11 07:46:52;;;;;;;87.80;39.30;;;;;;;-1.12;53.29;102906.85;107628;1253;98523;-61
2023/02/11 07:49:21;;;;;;;83.80;40.10;;;;;;;-1.13;52.91;102906.50;107622;1254;97832;-62
2023/02/11 07:51:50;;;;;;;83.80;39.10;;;;;;;-1.09;51.92;102904.70;107616;1254;112370;-62
2023/02/11 07:54:18;;;;;;;92.40;41.00;;;;;;;-1.08;51.35;102901.89;107496;1253;109116;-62
2023/02/11 07:56:47;;;;;;;93.50;41.70;;;;;;;-1.06;51.95;102893.25;107423;1254;107938;-62
2023/02/11 07:59:15;;;;;;;92.70;41.00;;;;;;;-1.05;50.01;102893.95;107552;1256;97903;-63
2023/02/11 08:01:44;;;;;;;96.60;41.20;;;;;;;-1.10;50.38;102889.21;107579;1256;97835;-62
2023/02/11 08:04:12;;;;;;;77.10;38.90;;;;;;;-1.10;50.54;102890.10;107423;1253;112620;-63
2023/02/11 08:06:42;;;;;;;88.70;39.70;;;;;;;-1.10;49.89;102876.89;107586;1254;109867;-62
2023/02/11 08:09:15;;;;;;;89.90;39.60;;;;;;;-1.03;50.57;102873.15;107590;1254;107277;-61
2023/02/11 08:11:44;;;;;;;95.90;38.50;;;;;;;-0.99;49.61;102859.92;107569;1254;97854;-62
2023/02/11 08:14:12;;;;;;;93.70;38.20;;;;;;;-0.93;50.26;102860.58;107628;1253;97852;-62
2023/02/11 08:16:41;;;;;;;92.40;42.30;;;;;;;-0.82;50.50;102858.38;107648;1253;112208;-61
2023/02/11 08:19:12;;;;;;;84.80;36.10;;;;;;;-0.65;50.49;102854.56;107600;1254;109769;-62
2023/02/11 08:21:41;;;;;;;80.40;36.50;;;;;;;-0.49;50.47;102851.45;107468;1254;107256;-63
2023/02/11 08:24:10;;;;;;;71.50;36.70;;;;;;;-0.38;49.01;102845.16;107578;1254;97853;-60
2023/02/11 08:26:38;;;;;;;74.10;33.90;;;;;;;-0.30;48.16;102833.27;107541;1254;98471;-62
2023/02/11 08:29:10;;;;;;;84.10;35.40;;;;;;;-0.22;47.67;102830.73;107569;1254;112898;-63
2023/02/11 08:31:41;;;;;;;62.30;31.10;;;;;;;-0.04;48.47;102826.32;107577;1254;110050;-60
2023/02/11 08:34:13;;;;;;;75.80;30.80;;;;;;;0.15;47.56;102810.40;107590;1253;108432;-60
2023/02/11 08:36:41;;;;;;;64.70;31.70;;;;;;;0.34;46.68;102809.98;107653;1254;97903;-61
2023/02/11 08:39:17;;;;;;;78.70;31.20;;;;;;;0.54;46.13;102802.46;107706;1255;97799;-61
2023/02/11 08:41:51;;;;;;;66.30;33.20;;;;;;;0.71;45.66;102797.81;107688;1255;112951;-61
2023/02/11 08:44:21;;;;;;;47.90;23.50;;;;;;;0.93;46.66;102792.20;107683;1254;110150;-60
2023/02/11 08:46:50;;;;;;;36.00;19.20;;;;;;;1.18;44.45;102791.43;107606;1254;107561;-62
2023/02/11 08:49:20;;;;;;;38.10;17.90;;;;;;;1.33;43.22;102784.48;107632;1254;98069;-62
2023/02/11 08:51:48;;;;;;;39.80;17.40;;;;;;;1.46;41.05;102782.13;107691;1254;97784;-61
2023/02/11 08:54:17;;;;;;;49.00;18.90;;;;;;;1.54;41.11;102785.69;107656;1254;111747;-61
2023/02/11 08:56:49;;;;;;;35.40;18.00;;;;;;;1.61;40.56;102781.85;107642;1254;109261;-62
2023/02/11 08:59:18;;;;;;;39.80;19.00;;;;;;;1.75;41.79;102775.58;107686;1253;108113;-62
2023/02/11 09:01:47;;;;;;;49.00;18.60;;;;;;;1.89;41.54;102773.18;107638;1254;97951;-61
2023/02/11 09:04:15;;;;;;;53.80;19.70;;;;;;;2.07;41.43;102778.47;107666;1254;97758;-62
2023/02/11 09:06:45;;;;;;;43.00;19.20;;;;;;;2.23;40.04;102774.79;107667;1254;110980;-61
2023/02/11 09:09:14;;;;;;;48.30;19.80;;;;;;;2.44;40.45;102774.16;107680;1253;110053;-61
2023/02/11 09:11:43;;;;;;;40.10;19.30;;;;;;;2.71;39.16;102768.41;107647;1254;107812;-61
2023/02/11 09:14:18;;;;;;;35.80;18.20;;;;;;;2.94;38.03;102765.57;107665;1256;97717;-61
2023/02/11 09:16:47;;;;;;;42.50;18.30;;;;;;;3.27;37.04;102759.23;107670;1254;97725;-63
2023/02/11 09:19:17;;;;;;;48.40;19.20;;;;;;;3.83;36.03;102747.63;107691;1254;112410;-62
2023/02/11 09:21:46;;;;;;;40.20;19.80;;;;;;;4.64;36.33;102738.78;107651;1254;109234;-62
2023/02/11 09:24:14;;;;;;;47.40;19.40;;;;;;;5.56;34.39;102737.66;107673;1254;107730;-61
2023/02/11 09:26:44;;;;;;;37.60;18.30;;;;;;;6.31;33.84;102731.54;107656;1254;97820;-62
2023/02/11 09:29:12;;;;;;;34.60;18.00;;;;;;;7.03;32.84;102725.94;107702;1254;97849;-62
2023/02/11 09:31:41;;;;;;;43.80;18.90;;;;;;;7.66;32.66;102720.71;107649;1254;111525;-63
2023/02/11 09:34:11;;;;;;;40.70;18.70;;;;;;;8.17;33.06;102706.41;107721;1251;108754;-63
2023/02/11 09:36:40;;;;;;;49.30;18.20;;;;;;;8.22;29.85;102701.02;107599;1251;108942;-62
2023/02/11 09:39:13;;;;;;;37.40;17.80;;;;;;;8.24;31.53;102688.73;107495;1251;97880;-62
2023/02/11 09:42:00;;;;;;;26.30;14.10;;;;;;;8.31;30.53;102677.67;107573;1251;97828;-63
2023/02/11 09:44:32;;;;;;;35.90;14.50;;;;;;;8.22;30.58;102663.64;107604;1251;112895;-61
2023/02/11 09:47:14;;;;;;;35.00;15.10;;;;;;;8.17;30.57;102659.98;107584;1251;109158;-62
2023/02/11 09:50:08;;;;;;;30.90;15.20;;;;;;;8.24;30.40;102659.65;107520;1254;108373;-62
2023/02/11 09:52:46;;;;;;;;;;;;;;;8.12;29.84;102665.17;107585;1254;97831;-61
2023/02/11 09:55:23;;;;;;;24.60;13.40;;;;;;;7.97;29.11;102654.45;107593;1254;97071;-61
2023/02/11 09:57:52;;;;;;;22.90;13.50;;;;;;;7.80;27.99;102645.98;107596;1254;111788;-61
2023/02/11 10:00:32;;;;;;;27.40;13.50;;;;;;;7.68;29.38;102649.20;107639;1254;109138;-62
2023/02/11 10:03:15;;;;;;;30.90;14.40;;;;;;;8.04;29.88;102643.61;107568;1255;108729;-63
2023/02/11 10:05:55;;;;;;;35.80;14.80;;;;;;;8.45;29.77;102637.70;107578;1256;97938;-62
2023/02/11 10:08:38;;;;;;;26.60;13.40;;;;;;;8.60;29.59;102631.45;107588;1257;97857;-62
2023/02/11 10:11:24;;;;;;;28.00;13.60;;;;;;;8.60;28.66;102622.14;107611;1256;111988;-61
2023/02/11 10:14:15;;;;;;;25.70;13.80;;;;;;;8.74;28.21;102615.86;107584;1254;110429;-61
2023/02/11 10:16:49;;;;;;;;;;;;;;;8.72;29.37;102605.77;107480;1254;108099;-62
2023/02/11 10:19:28;;;;;;;22.40;13.10;;;;;;;8.86;28.83;102599.89;107558;1255;97852;-63
2023/02/11 10:22:08;;;;;;;26.40;14.50;;;;;;;8.69;27.98;102591.25;107586;1254;97896;-62
2023/02/11 10:24:37;;;;;;;30.30;15.00;;;;;;;8.38;28.78;102576.86;107607;1254;111560;-64
2023/02/11 10:27:16;;;;;;;38.20;14.30;;;;;;;8.24;29.20;102568.48;107585;1254;110292;-62
2023/02/11 10:29:51;;;;;;;24.50;13.60;;;;;;;7.98;29.14;102559.02;107578;1254;107341;-62
2023/02/11 10:32:37;;;;;;;31.90;13.70;;;;;;;7.77;28.49;102560.34;107570;1257;97912;-62
2023/02/11 10:35:16;;;;;;;47.90;16.00;;;;;;;7.55;28.49;102560.69;107577;1256;98398;-64
2023/02/11 10:37:45;;;;;;;25.30;13.40;;;;;;;7.39;28.30;102552.52;107600;1256;111275;-64
2023/02/11 10:40:17;;;;;;;39.40;14.60;;;;;;;7.14;28.54;102551.32;107578;1256;110235;-62
2023/02/11 10:42:50;;;;;;;36.90;13.60;;;;;;;6.78;29.03;102543.14;107537;1257;107150;-62
2023/02/11 10:45:26;;;;;;;30.30;14.90;;;;;;;6.56;29.39;102539.80;107024;1256;750472;-62
2023/02/11 10:47:54;;;;;;;31.20;14.20;;;;;;;6.37;30.21;102526.35;107604;1255;98402;-61
2023/02/11 10:50:27;;;;;;;35.00;15.00;;;;;;;6.48;30.12;102516.62;107633;1257;111719;-61
2023/02/11 10:53:14;;;;;;;40.70;16.70;;;;;;;6.58;29.75;102516.36;107701;1257;110205;-62
2023/02/11 10:55:53;;;;;;;26.90;13.30;;;;;;;6.64;29.44;102509.67;107649;1256;108642;-63
2023/02/11 10:58:29;;;;;;;27.50;14.00;;;;;;;6.79;28.96;102512.59;107600;1253;97880;-62
2023/02/11 11:00:59;;;;;;;23.90;13.60;;;;;;;6.96;29.36;102506.48;107702;1254;97801;-61
2023/02/11 11:03:37;;;;;;;33.40;15.50;;;;;;;7.21;29.22;102502.11;107677;1254;112327;-62
2023/02/11 11:06:08;;;;;;;28.40;13.60;;;;;;;7.46;28.81;102499.91;107667;1254;109991;-63
2023/02/11 11:08:49;;;;;;;31.20;13.00;;;;;;;7.56;28.35;102489.94;107653;1253;107681;-62
2023/02/11 11:11:21;;;;;;;31.50;14.30;;;;;;;7.89;28.46;102486.53;107651;1255;97847;-62
2023/02/11 11:13:52;;;;;;;34.00;15.00;;;;;;;8.31;28.47;102478.70;107635;1254;97733;-63
2023/02/11 11:16:24;;;;;;;39.90;15.40;;;;;;;8.84;28.96;102469.52;107651;1254;111426;-62
2023/02/11 11:19:20;;;;;;;30.50;15.40;;;;;;;9.55;27.32;102466.73;107634;1257;110264;-62
2023/02/11 11:21:55;;;;;;;32.40;15.70;;;;;;;9.78;26.50;102463.42;107638;1254;107729;-64